Time;durP1;ratioP1;P1;durP2;ratioP2;P2;SDS_P1;SDS_P2;PMS_P1;PMS_P2;Temp;Humidity;BMP_temperature;BMP_pressure;BME280_temperature;BME280_humidity;BME280_pressure;Samples;Min_cycle;Max_cycle;Signal;HPM_P1;HPM_P2
2022/09/13 00:01:24;;;;;;;0.10;0.10;;;;;;;9.58;62.25;99786.91;5007326;28;20053;-66
2022/09/13 00:03:51;;;;;;;0.10;0.10;;;;;;;9.60;62.32;99786.63;4989013;28;20058;-66
2022/09/13 00:06:18;;;;;;;0.10;0.10;;;;;;;9.61;62.28;99788.28;4985210;28;20568;-66
2022/09/13 00:08:45;;;;;;;0.10;0.10;;;;;;;9.60;62.31;99778.44;4989607;28;20298;-66
2022/09/13 00:11:16;;;;;;;0.10;0.10;;;;;;;9.57;62.50;99785.25;5008074;28;20145;-66
2022/09/13 00:13:41;;;;;;;0.10;0.10;;;;;;;9.54;62.42;99779.53;5008688;28;20509;-66
2022/09/13 00:16:11;;;;;;;0.28;0.10;;;;;;;9.51;62.59;99770.78;5009941;28;20057;-66
2022/09/13 00:18:39;;;;;;;0.10;0.10;;;;;;;9.46;62.86;99773.50;5008601;28;20053;-66
2022/09/13 00:21:06;;;;;;;;;;;;;;;9.42;62.96;99766.94;4991680;28;20045;-66
2022/09/13 00:23:32;;;;;;;0.20;0.13;;;;;;;9.41;62.80;99778.94;5009124;28;19995;-66
2022/09/13 00:26:07;;;;;;;0.10;0.10;;;;;;;9.43;63.00;99768.56;5007338;28;20513;-66
2022/09/13 00:28:33;;;;;;;0.28;0.10;;;;;;;9.46;62.79;99778.16;4987697;28;20398;-66
2022/09/13 00:31:00;;;;;;;0.10;0.10;;;;;;;9.46;62.82;99767.22;4988589;28;20081;-66
2022/09/13 00:33:26;;;;;;;0.00;0.00;;;;;;;9.49;62.71;99761.22;5007273;28;20053;-66
2022/09/13 00:35:53;;;;;;;0.10;0.10;;;;;;;9.58;62.42;99770.53;5008355;28;20064;-66
2022/09/13 00:38:19;;;;;;;0.10;0.10;;;;;;;9.61;62.24;99766.44;5009281;28;20100;-66
2022/09/13 00:40:46;;;;;;;0.32;0.15;;;;;;;9.63;62.22;99767.00;4976476;28;20049;-66
2022/09/13 00:43:16;;;;;;;0.10;0.10;;;;;;;9.62;62.38;99762.63;5008542;28;20042;-66
2022/09/13 00:45:42;;;;;;;0.75;0.20;;;;;;;9.54;62.43;99769.44;4992945;28;20195;-66
2022/09/13 00:48:17;;;;;;;0.08;0.08;;;;;;;9.42;62.78;99766.09;5011725;28;20062;-65
2022/09/13 00:50:47;;;;;;;0.30;0.20;;;;;;;9.36;63.10;99759.81;4990015;28;20464;-66
2022/09/13 00:53:18;;;;;;;0.10;0.10;;;;;;;9.29;63.15;99760.09;5010505;28;20080;-66
2022/09/13 00:55:49;;;;;;;0.10;0.10;;;;;;;9.29;63.21;99764.72;4992863;28;20144;-67
2022/09/13 00:58:19;;;;;;;0.98;0.28;;;;;;;9.24;63.48;99759.25;4990226;28;20066;-66
2022/09/13 01:00:46;;;;;;;0.10;0.10;;;;;;;9.20;63.98;99761.69;4973074;28;20510;-66
2022/09/13 01:03:16;;;;;;;0.10;0.10;;;;;;;9.15;63.97;99764.38;4990959;28;20081;-66
2022/09/13 01:05:49;;;;;;;0.10;0.10;;;;;;;9.11;64.02;99755.91;5007384;28;20038;-66
2022/09/13 01:08:21;;;;;;;0.10;0.10;;;;;;;9.11;63.96;99760.53;4990688;28;20050;-66
2022/09/13 01:10:49;;;;;;;0.38;0.10;;;;;;;9.08;64.08;99756.44;4989693;28;20046;-66
2022/09/13 01:13:18;;;;;;;0.10;0.10;;;;;;;9.06;64.35;99764.09;5006524;28;20567;-66
2022/09/13 01:15:45;;;;;;;0.10;0.10;;;;;;;8.99;64.41;99763.47;5008644;28;20579;-65
2022/09/13 01:18:12;;;;;;;0.10;0.10;;;;;;;9.01;64.46;99774.94;5007028;28;20046;-66
2022/09/13 01:20:53;;;;;;;0.10;0.10;;;;;;;8.96;64.67;99766.75;5005352;28;20636;-66
2022/09/13 01:23:45;;;;;;;0.10;0.10;;;;;;;8.89;64.76;99759.59;4987465;28;20041;-66
2022/09/13 01:27:06;;;;;;;0.10;0.10;;;;;;;8.87;64.78;99760.97;4974731;28;20042;-66
2022/09/13 01:30:08;;;;;;;0.13;0.10;;;;;;;8.94;64.71;99765.09;4928657;29;20511;-66
2022/09/13 01:32:47;;;;;;;0.10;0.10;;;;;;;8.92;64.46;99761.00;4909127;29;20064;-66
2022/09/13 01:35:22;;;;;;;0.25;0.10;;;;;;;8.89;64.79;99756.06;4888017;29;20194;-66
2022/09/13 01:37:53;;;;;;;0.10;0.10;;;;;;;8.82;65.05;99758.19;4909833;29;20445;-66
2022/09/13 01:40:34;;;;;;;0.10;0.10;;;;;;;8.76;65.12;99750.00;4877771;29;20083;-66
2022/09/13 01:43:14;;;;;;;0.10;0.10;;;;;;;8.72;65.31;99745.34;4894059;29;20059;-66
2022/09/13 01:45:52;;;;;;;0.10;0.10;;;;;;;8.79;65.16;99763.09;4874466;29;20514;-66
2022/09/13 01:48:25;;;;;;;0.20;0.13;;;;;;;8.80;65.00;99753.84;4891508;29;20068;-66
2022/09/13 01:50:59;;;;;;;0.10;0.10;;;;;;;8.83;64.84;99763.41;4907982;29;20051;-67
2022/09/13 01:53:35;;;;;;;0.10;0.10;;;;;;;8.83;64.94;99752.50;4878468;29;20056;-66
2022/09/13 01:56:07;;;;;;;0.10;0.10;;;;;;;8.85;64.92;99753.03;4877490;29;20052;-67
2022/09/13 01:58:41;;;;;;;0.10;0.10;;;;;;;8.84;64.91;99764.22;4905694;29;20052;-66
2022/09/13 02:01:15;;;;;;;0.13;0.10;;;;;;;8.80;65.26;99759.28;4985079;28;20318;-66
2022/09/13 02:03:47;;;;;;;0.10;0.10;;;;;;;8.75;65.41;99755.72;5004908;28;20042;-65
2022/09/13 02:06:18;;;;;;;0.10;0.10;;;;;;;8.69;65.42;99745.88;5007080;28;20096;-66
2022/09/13 02:08:48;;;;;;;0.10;0.10;;;;;;;8.65;65.61;99748.28;4988194;28;20473;-66
2022/09/13 02:11:16;;;;;;;0.10;0.10;;;;;;;8.57;65.80;99738.69;4985598;28;20042;-66
2022/09/13 02:13:47;;;;;;;0.10;0.10;;;;;;;8.49;66.19;99745.44;4970238;28;20615;-66
2022/09/13 02:16:23;;;;;;;0.00;0.00;;;;;;;8.44;66.40;99747.34;4990431;28;20100;-67
2022/09/13 02:18:57;;;;;;;0.10;0.10;;;;;;;8.41;66.50;99734.22;4957841;28;20081;-67
2022/09/13 02:21:28;;;;;;;0.10;0.10;;;;;;;8.33;66.56;99741.78;4988007;28;20050;-67
2022/09/13 02:23:59;;;;;;;0.10;0.10;;;;;;;8.35;66.75;99736.06;5004393;28;20049;-66
2022/09/13 02:26:29;;;;;;;0.10;0.10;;;;;;;8.31;66.90;99741.25;5006425;28;20038;-66
2022/09/13 02:29:00;;;;;;;0.10;0.10;;;;;;;8.17;66.77;99719.06;4971472;28;20046;-66
2022/09/13 02:31:33;;;;;;;0.75;0.22;;;;;;;8.27;67.03;99737.38;4988693;28;20041;-68
2022/09/13 02:34:03;;;;;;;0.10;0.10;;;;;;;8.27;66.92;99740.09;4987891;28;20053;-66
2022/09/13 02:36:34;;;;;;;0.10;0.10;;;;;;;8.25;66.90;99731.38;4989048;28;20498;-66
2022/09/13 02:39:05;;;;;;;0.10;0.10;;;;;;;8.29;66.95;99739.84;5004623;28;20463;-67
2022/09/13 02:41:38;;;;;;;0.10;0.10;;;;;;;8.30;67.05;99736.88;4989000;28;20049;-66
2022/09/13 02:44:11;;;;;;;0.32;0.10;;;;;;;8.34;66.85;99731.72;4988833;28;20050;-66
2022/09/13 02:46:53;;;;;;;0.10;0.10;;;;;;;8.39;66.67;99731.75;5007618;28;20046;-67
2022/09/13 02:49:25;;;;;;;0.10;0.10;;;;;;;8.43;66.51;99737.50;4989900;28;20045;-64
2022/09/13 02:51:55;;;;;;;0.10;0.10;;;;;;;8.42;66.42;99728.50;4990603;28;20410;-66
2022/09/13 02:54:29;;;;;;;0.10;0.10;;;;;;;8.46;66.44;99726.09;5005800;28;20104;-67
2022/09/13 02:56:58;;;;;;;0.10;0.10;;;;;;;8.48;66.27;99727.44;5003659;28;20053;-67
2022/09/13 02:59:25;;;;;;;0.20;0.10;;;;;;;8.47;66.37;99731.25;5003382;28;20057;-67
2022/09/13 03:01:58;;;;;;;0.10;0.10;;;;;;;8.49;66.20;99728.28;5007035;28;20503;-66
2022/09/13 03:04:24;;;;;;;0.10;0.10;;;;;;;8.48;66.36;99726.66;4987528;28;20053;-66
2022/09/13 03:06:51;;;;;;;0.08;0.08;;;;;;;8.48;66.41;99726.66;5004774;28;20073;-66
2022/09/13 03:09:18;;;;;;;0.10;0.10;;;;;;;8.43;66.21;99718.41;4987968;28;20104;-66
2022/09/13 03:12:04;;;;;;;0.15;0.10;;;;;;;8.44;66.33;99717.34;5005087;28;20583;-66
2022/09/13 03:14:41;;;;;;;0.10;0.10;;;;;;;8.45;66.32;99713.56;5004688;28;20069;-66
2022/09/13 03:17:19;;;;;;;0.10;0.10;;;;;;;8.46;66.31;99726.91;5006420;28;20487;-66
2022/09/13 03:19:55;;;;;;;0.20;0.10;;;;;;;8.45;66.16;99717.06;4987106;28;20143;-66
2022/09/13 03:22:38;;;;;;;0.25;0.10;;;;;;;8.51;66.11;99716.06;5007977;28;20049;-66
2022/09/13 03:25:11;;;;;;;0.10;0.10;;;;;;;8.54;65.98;99722.06;5006193;28;20234;-65
2022/09/13 03:27:46;;;;;;;0.90;0.20;;;;;;;8.56;65.87;99726.16;4989856;28;20053;-66
2022/09/13 03:30:14;;;;;;;0.10;0.10;;;;;;;8.58;65.79;99724.00;5005251;28;20096;-66
2022/09/13 03:32:49;;;;;;;0.10;0.10;;;;;;;8.62;65.75;99716.13;4986945;28;20050;-66
2022/09/13 03:35:26;;;;;;;0.10;0.10;;;;;;;8.73;65.41;99717.00;5009209;28;20057;-66
2022/09/13 03:37:59;;;;;;;0.10;0.10;;;;;;;8.71;65.34;99716.44;5009848;28;20073;-66
2022/09/13 03:40:34;;;;;;;0.10;0.10;;;;;;;8.72;65.37;99715.34;5007427;28;20056;-66
2022/09/13 03:43:04;;;;;;;0.10;0.10;;;;;;;8.75;65.27;99720.28;5008864;28;20049;-67
2022/09/13 03:45:35;;;;;;;0.10;0.10;;;;;;;8.84;65.17;99718.69;4989400;28;20050;-67
2022/09/13 03:48:05;;;;;;;0.10;0.10;;;;;;;8.92;64.64;99723.66;5008431;28;20148;-66
2022/09/13 03:50:32;;;;;;;0.10;0.10;;;;;;;8.91;64.54;99718.44;4988053;28;20618;-66
2022/09/13 03:53:04;;;;;;;0.10;0.10;;;;;;;8.95;64.68;99722.28;5008594;28;20596;-66
2022/09/13 03:55:33;;;;;;;0.10;0.10;;;;;;;9.06;64.25;99721.25;4989788;28;20513;-67
2022/09/13 03:58:00;;;;;;;0.10;0.10;;;;;;;9.07;64.03;99713.91;5008461;28;20108;-65
2022/09/13 04:00:26;;;;;;;0.10;0.10;;;;;;;9.10;63.89;99702.44;5005598;28;20108;-66
2022/09/13 04:02:52;;;;;;;0.10;0.10;;;;;;;9.09;63.93;99698.09;4989110;28;20472;-66
2022/09/13 04:05:20;;;;;;;0.20;0.20;;;;;;;9.15;63.76;99704.38;5008663;28;20042;-66
2022/09/13 04:07:46;;;;;;;;;;;;;;;9.20;63.68;99710.66;4990880;28;20509;-66
2022/09/13 04:10:12;;;;;;;0.10;0.10;;;;;;;9.26;63.15;99716.94;5010336;28;19925;-66
2022/09/13 04:12:40;;;;;;;0.10;0.10;;;;;;;9.26;63.11;99702.50;4974892;28;20102;-66
2022/09/13 04:15:07;;;;;;;0.10;0.10;;;;;;;9.22;63.20;99708.50;5009053;28;20200;-66
2022/09/13 04:17:33;;;;;;;;;;;;;;;9.19;63.42;99708.19;5008418;28;20045;-66
2022/09/13 04:19:59;;;;;;;0.10;0.10;;;;;;;9.11;63.38;99712.25;5009256;28;20027;-66
2022/09/13 04:22:27;;;;;;;0.10;0.10;;;;;;;9.04;63.93;99703.50;5006865;28;20076;-66
2022/09/13 04:24:53;;;;;;;0.10;0.10;;;;;;;8.96;64.01;99706.75;5006932;28;20064;-65
2022/09/13 04:27:19;;;;;;;0.10;0.10;;;;;;;8.96;64.19;99706.75;4984691;28;20477;-66
2022/09/13 04:29:45;;;;;;;0.10;0.10;;;;;;;9.03;64.13;99704.59;5006139;28;20049;-65
2022/09/13 04:32:11;;;;;;;0.10;0.10;;;;;;;9.10;63.98;99710.63;4974909;28;20077;-66
2022/09/13 04:34:37;;;;;;;0.17;0.17;;;;;;;9.18;63.85;99709.28;5009520;28;20045;-66
2022/09/13 04:37:03;;;;;;;0.15;0.15;;;;;;;9.32;63.41;99723.25;4993623;28;20053;-66
2022/09/13 04:39:31;;;;;;;0.20;0.20;;;;;;;9.36;63.04;99724.34;4990587;28;20557;-69
2022/09/13 04:41:58;;;;;;;0.10;0.10;;;;;;;9.39;63.10;99723.00;5006277;28;20080;-68
2022/09/13 04:44:24;;;;;;;0.10;0.10;;;;;;;9.36;63.15;99725.16;5007368;28;20050;-67
2022/09/13 04:46:50;;;;;;;0.10;0.10;;;;;;;9.41;63.08;99720.81;5008841;28;20137;-67
2022/09/13 04:49:18;;;;;;;0.20;0.20;;;;;;;9.50;62.80;99722.72;5009524;28;20054;-66
2022/09/13 04:51:45;;;;;;;0.10;0.10;;;;;;;9.51;62.68;99723.56;5005919;28;20042;-67
2022/09/13 04:54:12;;;;;;;0.10;0.10;;;;;;;9.46;62.68;99723.56;4986774;28;20057;-68
2022/09/13 04:56:40;;;;;;;0.10;0.10;;;;;;;9.46;62.71;99729.81;5005484;28;20145;-68
2022/09/13 04:59:05;;;;;;;;;;;;;;;9.39;62.78;99706.63;5005263;28;20049;-67
2022/09/13 05:01:32;;;;;;;0.47;0.20;;;;;;;9.53;62.64;99726.84;5005416;28;20308;-67
2022/09/13 05:03:58;;;;;;;0.10;0.10;;;;;;;9.56;62.44;99728.22;5005083;28;20504;-67
2022/09/13 05:06:24;;;;;;;0.10;0.10;;;;;;;9.55;62.50;99732.84;5004986;28;20100;-67
2022/09/13 05:08:53;;;;;;;0.40;0.10;;;;;;;9.59;62.43;99733.13;4971832;28;20063;-67
2022/09/13 05:11:21;;;;;;;1.55;0.30;;;;;;;9.58;62.45;99736.97;5005869;28;20557;-67
2022/09/13 05:13:51;;;;;;;0.20;0.20;;;;;;;9.56;62.42;99728.22;5006413;28;20165;-67
2022/09/13 05:16:18;;;;;;;0.60;0.20;;;;;;;9.59;62.35;99733.13;4973105;28;20057;-67
2022/09/13 05:18:44;;;;;;;0.10;0.10;;;;;;;9.61;62.36;99728.22;5008328;28;20050;-67
2022/09/13 05:21:10;;;;;;;0.10;0.10;;;;;;;9.51;62.26;99705.28;5005314;28;20077;-67
2022/09/13 05:23:37;;;;;;;0.17;0.17;;;;;;;9.72;62.07;99729.06;5003879;28;20585;-68
2022/09/13 05:26:04;;;;;;;0.10;0.10;;;;;;;9.66;61.83;99722.75;5006634;28;20065;-68
2022/09/13 05:28:33;;;;;;;0.10;0.10;;;;;;;9.70;62.09;99728.50;4971763;28;20050;-68
2022/09/13 05:31:02;;;;;;;0.20;0.20;;;;;;;9.70;61.95;99726.63;4989435;28;20155;-68
2022/09/13 05:33:30;;;;;;;0.22;0.20;;;;;;;9.63;62.24;99729.59;5007792;28;20509;-66
2022/09/13 05:35:56;;;;;;;0.30;0.20;;;;;;;9.69;62.29;99729.59;4986688;28;20053;-67
2022/09/13 05:38:23;;;;;;;0.15;0.15;;;;;;;9.73;61.91;99727.97;5000886;28;20038;-67
2022/09/13 05:40:55;;;;;;;0.20;0.20;;;;;;;9.81;61.83;99726.59;4982786;28;20450;-67
2022/09/13 05:43:21;;;;;;;0.10;0.10;;;;;;;9.83;61.70;99727.16;5002014;28;20526;-67
2022/09/13 05:45:47;;;;;;;0.10;0.10;;;;;;;9.92;61.44;99733.72;5001692;28;20136;-67
2022/09/13 05:48:14;;;;;;;0.10;0.10;;;;;;;10.01;61.28;99740.31;5001551;28;20058;-68
2022/09/13 05:50:40;;;;;;;0.10;0.10;;;;;;;10.08;60.87;99729.09;5001523;28;20056;-67
2022/09/13 05:53:06;;;;;;;0.20;0.20;;;;;;;10.15;60.72;99731.56;5006890;28;20058;-67
2022/09/13 05:55:33;;;;;;;0.20;0.20;;;;;;;10.13;60.68;99729.09;4990023;28;20041;-67
2022/09/13 05:58:00;;;;;;;0.20;0.20;;;;;;;10.13;60.77;99740.03;5006930;28;20651;-67
2022/09/13 06:00:27;;;;;;;0.45;0.22;;;;;;;10.17;60.82;99737.56;5005540;28;20054;-67
2022/09/13 06:02:52;;;;;;;0.10;0.10;;;;;;;10.15;60.70;99729.63;5006484;28;20061;-67
2022/09/13 06:05:20;;;;;;;0.10;0.10;;;;;;;10.15;60.78;99726.09;5005263;28;20046;-67
2022/09/13 06:07:46;;;;;;;0.17;0.17;;;;;;;10.18;60.88;99725.53;5004045;28;20573;-67
2022/09/13 06:10:12;;;;;;;0.20;0.20;;;;;;;10.27;60.43;99728.53;5004427;28;20497;-65
2022/09/13 06:12:38;;;;;;;0.10;0.10;;;;;;;10.35;60.28;99726.06;5005194;28;20084;-66
2022/09/13 06:15:05;;;;;;;0.20;0.20;;;;;;;10.43;59.97;99718.44;5005090;28;20140;-67
2022/09/13 06:17:31;;;;;;;0.30;0.30;;;;;;;10.51;59.64;99723.34;5007620;28;20046;-65
2022/09/13 06:19:57;;;;;;;0.20;0.20;;;;;;;10.55;59.60;99724.44;5008282;28;20056;-66
2022/09/13 06:22:24;;;;;;;0.20;0.20;;;;;;;10.56;59.71;99722.53;5015946;28;20053;-67
2022/09/13 06:24:50;;;;;;;0.22;0.22;;;;;;;10.61;59.47;99726.06;5019063;28;20631;-68
2022/09/13 06:27:16;;;;;;;0.20;0.20;;;;;;;10.73;59.11;99724.94;5014360;28;20125;-65
2022/09/13 06:29:42;;;;;;;0.20;0.20;;;;;;;10.79;58.95;99726.56;5015924;28;20158;-67
2022/09/13 06:32:08;;;;;;;0.20;0.20;;;;;;;10.80;58.56;99722.75;5015657;28;20420;-66
2022/09/13 06:34:34;;;;;;;0.13;0.13;;;;;;;10.90;58.48;99719.16;4995242;28;20046;-65
2022/09/13 06:37:00;;;;;;;0.17;0.17;;;;;;;10.96;58.24;99726.22;5008317;28;20054;-67
2022/09/13 06:39:27;;;;;;;0.20;0.20;;;;;;;10.94;58.35;99725.69;4990196;28;20052;-67
2022/09/13 06:41:54;;;;;;;0.70;0.30;;;;;;;11.02;58.35;99721.56;4985192;28;20045;-68
2022/09/13 06:44:34;;;;;;;0.17;0.17;;;;;;;10.97;58.07;99700.50;4974111;28;20049;-68
2022/09/13 06:47:00;;;;;;;0.43;0.20;;;;;;;11.15;57.92;99718.22;4986669;28;20061;-66
2022/09/13 06:49:28;;;;;;;0.20;0.20;;;;;;;11.17;57.78;99715.22;5006545;28;20069;-68
2022/09/13 06:51:54;;;;;;;0.17;0.17;;;;;;;11.15;57.85;99714.66;4988289;28;20109;-68
2022/09/13 06:54:20;;;;;;;0.20;0.20;;;;;;;11.14;58.08;99713.84;5005109;28;20587;-68
2022/09/13 06:56:47;;;;;;;0.45;0.15;;;;;;;11.24;57.77;99715.72;5005194;28;20045;-68
2022/09/13 06:59:13;;;;;;;;;;;;;;;11.30;57.61;99706.38;5009478;28;20045;-68
2022/09/13 07:01:42;;;;;;;0.20;0.20;;;;;;;11.33;57.33;99714.03;5002555;28;20326;-68
2022/09/13 07:04:09;;;;;;;0.10;0.10;;;;;;;11.37;57.04;99708.78;5008841;28;20046;-68
2022/09/13 07:06:38;;;;;;;0.20;0.20;;;;;;;11.45;56.69;99710.94;5004303;28;20050;-68
2022/09/13 07:09:06;;;;;;;0.20;0.20;;;;;;;11.58;56.42;99705.97;5005386;28;20138;-68
2022/09/13 07:11:36;;;;;;;0.20;0.20;;;;;;;11.80;55.86;99704.69;4990727;28;20050;-68
2022/09/13 07:14:06;;;;;;;0.30;0.30;;;;;;;11.97;55.47;99699.63;4975307;28;20046;-68
2022/09/13 07:16:34;;;;;;;0.20;0.20;;;;;;;12.08;55.00;99697.66;5004697;28;20041;-66
2022/09/13 07:19:04;;;;;;;0.30;0.30;;;;;;;12.29;54.38;99694.75;5003652;28;20081;-66
2022/09/13 07:21:38;;;;;;;0.30;0.30;;;;;;;12.55;54.00;99680.75;5007708;28;20088;-68
2022/09/13 07:24:08;;;;;;;0.30;0.30;;;;;;;12.63;53.43;99680.94;4991604;28;20444;-65
2022/09/13 07:26:34;;;;;;;0.30;0.30;;;;;;;12.68;53.31;99687.47;5007330;28;20068;-66
2022/09/13 07:29:01;;;;;;;0.30;0.30;;;;;;;12.82;53.25;99682.09;4988000;28;20046;-68
2022/09/13 07:31:31;;;;;;;0.30;0.30;;;;;;;13.03;52.63;99677.19;5004408;28;20046;-65
2022/09/13 07:33:58;;;;;;;0.30;0.30;;;;;;;13.22;52.23;99674.47;4985653;28;20057;-68
2022/09/13 07:36:26;;;;;;;0.30;0.30;;;;;;;13.47;51.54;99669.72;5004969;28;20061;-67
2022/09/13 07:38:52;;;;;;;0.30;0.30;;;;;;;13.73;50.99;99663.84;5004808;28;20061;-68
2022/09/13 07:41:19;;;;;;;0.30;0.30;;;;;;;14.02;50.07;99663.63;5005571;28;20028;-68
2022/09/13 07:43:46;;;;;;;0.30;0.30;;;;;;;14.30;49.45;99665.66;5005891;28;20045;-66
2022/09/13 07:46:14;;;;;;;0.30;0.30;;;;;;;14.64;48.28;99663.63;5003049;28;20145;-68
2022/09/13 07:48:43;;;;;;;0.30;0.30;;;;;;;14.90;47.62;99658.44;5009536;28;20065;-67
2022/09/13 07:51:11;;;;;;;0.30;0.30;;;;;;;15.19;47.01;99650.97;4985546;28;20061;-68
2022/09/13 07:53:38;;;;;;;0.52;0.40;;;;;;;15.39;46.28;99649.69;4983060;28;20045;-68
2022/09/13 07:56:06;;;;;;;0.30;0.30;;;;;;;15.57;45.26;99654.22;5004896;28;20058;-68
2022/09/13 07:58:33;;;;;;;0.40;0.40;;;;;;;15.76;44.89;99653.22;4968240;28;20042;-68
2022/09/13 08:01:04;;;;;;;0.30;0.30;;;;;;;15.94;44.20;99648.69;5004264;28;20104;-68
2022/09/13 08:03:30;;;;;;;0.30;0.30;;;;;;;16.14;43.64;99641.81;5006468;28;20037;-66
2022/09/13 08:05:57;;;;;;;0.32;0.32;;;;;;;16.23;43.68;99644.59;5010275;28;20045;-68
2022/09/13 08:08:23;;;;;;;0.32;0.32;;;;;;;16.28;43.10;99643.66;5005598;28;20056;-68
2022/09/13 08:10:50;;;;;;;0.40;0.40;;;;;;;16.19;43.44;99638.09;5004491;28;20050;-66
2022/09/13 08:13:16;;;;;;;0.30;0.30;;;;;;;16.19;43.18;99640.06;4969682;28;20547;-66
2022/09/13 08:15:42;;;;;;;0.40;0.40;;;;;;;16.43;42.81;99643.25;5005293;28;20140;-69
2022/09/13 08:18:08;;;;;;;0.40;0.40;;;;;;;16.84;42.33;99643.22;4988996;28;20579;-66
2022/09/13 08:20:36;;;;;;;0.40;0.40;;;;;;;17.28;41.18;99635.84;5005669;28;20049;-66
2022/09/13 08:23:04;;;;;;;;;;;;;;;17.85;40.26;99631.25;5012978;28;20056;-66
2022/09/13 08:25:33;;;;;;;0.43;0.43;;;;;;;18.33;38.75;99630.50;5006642;28;20040;-68
2022/09/13 08:27:59;;;;;;;0.50;0.50;;;;;;;18.65;38.39;99633.78;5007359;28;20109;-66
2022/09/13 08:30:31;;;;;;;0.50;0.50;;;;;;;18.97;37.00;99631.50;4987954;28;20050;-66
2022/09/13 08:32:59;;;;;;;0.50;0.50;;;;;;;19.05;36.59;99633.44;4990736;28;20048;-68
2022/09/13 08:35:26;;;;;;;0.47;0.47;;;;;;;19.01;36.52;99626.94;4970301;28;20104;-69
2022/09/13 08:37:54;;;;;;;0.40;0.40;;;;;;;19.43;35.95;99620.56;5006463;28;20050;-66
2022/09/13 08:40:23;;;;;;;0.60;0.50;;;;;;;19.35;35.56;99618.69;4975503;28;20521;-67
2022/09/13 08:42:56;;;;;;;0.60;0.50;;;;;;;19.37;35.75;99624.72;4963232;28;20501;-66
2022/09/13 08:45:22;;;;;;;0.50;0.50;;;;;;;19.49;35.19;99622.00;5010065;28;20500;-67
2022/09/13 08:47:55;;;;;;;0.50;0.50;;;;;;;19.60;35.04;99616.06;5009352;28;20062;-68
2022/09/13 08:50:25;;;;;;;0.55;0.50;;;;;;;19.52;35.19;99603.91;5010473;28;20046;-68
2022/09/13 08:52:59;;;;;;;0.45;0.45;;;;;;;19.15;35.27;99598.16;5011075;28;20054;-68
2022/09/13 08:55:39;;;;;;;0.40;0.40;;;;;;;18.74;36.16;99594.97;5008332;28;20108;-68
2022/09/13 08:58:19;;;;;;;0.40;0.40;;;;;;;18.56;36.44;99598.66;5008592;28;20045;-67
2022/09/13 09:00:53;;;;;;;0.50;0.50;;;;;;;18.27;36.38;99591.16;5009142;28;20049;-66
2022/09/13 09:03:29;;;;;;;0.40;0.40;;;;;;;17.85;37.29;99591.75;5009599;28;20062;-67
2022/09/13 09:05:55;;;;;;;0.30;0.30;;;;;;;17.24;37.77;99590.66;5007751;28;20050;-66
2022/09/13 09:08:32;;;;;;;0.30;0.30;;;;;;;16.62;38.85;99577.88;5005321;28;20064;-66
2022/09/13 09:11:06;;;;;;;0.40;0.40;;;;;;;16.16;40.04;99589.91;4990735;28;20277;-65
2022/09/13 09:13:36;;;;;;;0.40;0.40;;;;;;;15.85;41.02;99587.94;5006449;28;20069;-67
2022/09/13 09:16:11;;;;;;;0.30;0.30;;;;;;;15.63;41.35;99579.69;5007717;28;20049;-67
2022/09/13 09:18:42;;;;;;;0.45;0.30;;;;;;;15.54;41.69;99579.63;4974820;28;20056;-65
2022/09/13 09:21:20;;;;;;;0.30;0.30;;;;;;;15.44;41.91;99573.22;4988568;28;20136;-67
2022/09/13 09:23:52;;;;;;;0.40;0.40;;;;;;;15.48;42.24;99575.38;4990472;28;20552;-67
2022/09/13 09:26:21;;;;;;;0.30;0.30;;;;;;;15.51;42.09;99572.81;5006313;28;20037;-67
2022/09/13 09:28:49;;;;;;;0.30;0.30;;;;;;;15.46;42.19;99575.69;4988190;28;20042;-65
2022/09/13 09:31:26;;;;;;;0.30;0.30;;;;;;;15.47;42.08;99568.25;5001955;28;20044;-65
2022/09/13 09:34:05;;;;;;;0.40;0.40;;;;;;;15.41;42.42;99578.56;5005967;28;20420;-65
2022/09/13 09:36:39;;;;;;;0.30;0.30;;;;;;;15.36;42.44;99562.16;5005390;28;20123;-66
2022/09/13 09:39:10;;;;;;;0.30;0.30;;;;;;;15.38;42.62;99562.69;4991208;28;20049;-66
2022/09/13 09:41:38;;;;;;;0.30;0.30;;;;;;;15.38;42.67;99569.00;4980833;28;20068;-66
2022/09/13 09:44:21;;;;;;;0.30;0.30;;;;;;;15.45;42.84;99563.88;4987714;28;20563;-66
2022/09/13 09:46:50;;;;;;;0.30;0.30;;;;;;;15.34;42.73;99545.97;4984104;28;20065;-65
2022/09/13 09:52:21;;;;;;;0.30;0.30;;;;;;;15.28;42.78;99549.94;4990734;28;20065;-65
2022/09/13 09:54:48;;;;;;;0.30;0.30;;;;;;;15.20;43.06;99554.25;5008100;28;20046;-66
2022/09/13 09:57:49;;;;;;;0.30;0.30;;;;;;;15.12;43.22;99544.81;4969961;28;20192;-65
2022/09/13 10:00:16;;;;;;;0.30;0.30;;;;;;;15.17;43.21;99555.72;4972354;28;20049;-67
2022/09/13 10:02:43;;;;;;;0.30;0.30;;;;;;;15.29;43.13;99554.31;5007031;28;20045;-67
2022/09/13 10:05:11;;;;;;;0.30;0.30;;;;;;;15.31;42.60;99552.09;4984577;28;20127;-68
2022/09/13 10:07:38;;;;;;;0.40;0.40;;;;;;;15.22;41.83;99564.97;4988932;28;20038;-69
2022/09/13 10:10:19;;;;;;;0.30;0.30;;;;;;;15.06;41.31;99548.81;4988114;28;20112;-66
2022/09/13 10:12:50;;;;;;;0.47;0.30;;;;;;;14.91;41.53;99547.25;4993718;28;20072;-67
2022/09/13 10:15:19;;;;;;;0.30;0.30;;;;;;;14.72;41.46;99541.88;5003006;28;20050;-65
2022/09/13 10:18:05;;;;;;;0.30;0.30;;;;;;;14.64;41.74;99550.81;5004849;28;20050;-65
2022/09/13 10:20:32;;;;;;;0.35;0.30;;;;;;;14.56;42.01;99544.09;5003731;28;20580;-67
2022/09/13 10:23:18;;;;;;;0.30;0.30;;;;;;;14.48;42.85;99542.88;4986788;28;20101;-66
2022/09/13 10:25:55;;;;;;;0.30;0.30;;;;;;;14.42;43.00;99535.88;5005637;28;20103;-65
2022/09/13 10:28:24;;;;;;;0.20;0.20;;;;;;;14.36;43.48;99542.59;4990136;28;20160;-66
2022/09/13 10:30:56;;;;;;;0.30;0.30;;;;;;;14.33;43.64;99542.09;5005914;28;20041;-65
2022/09/13 10:33:29;;;;;;;0.20;0.20;;;;;;;14.25;43.97;99531.81;4963579;28;20525;-65
2022/09/13 10:35:59;;;;;;;0.20;0.20;;;;;;;14.21;43.66;99528.06;5009674;28;20153;-67
2022/09/13 10:38:31;;;;;;;0.20;0.20;;;;;;;14.26;43.94;99527.94;4988678;28;20140;-65
2022/09/13 10:41:00;;;;;;;0.20;0.20;;;;;;;14.24;43.87;99529.38;4987644;28;20145;-67
2022/09/13 10:43:29;;;;;;;0.20;0.20;;;;;;;14.22;43.94;99521.44;4986086;28;20386;-68
2022/09/13 10:45:57;;;;;;;0.30;0.30;;;;;;;14.18;43.75;99521.22;5000619;28;20060;-67
2022/09/13 10:48:23;;;;;;;;;;;;;;;14.17;43.74;99524.28;5008492;28;20076;-68
2022/09/13 10:51:07;;;;;;;0.20;0.20;;;;;;;14.15;43.83;99512.78;4989398;28;19971;-68
2022/09/13 10:53:36;;;;;;;0.20;0.20;;;;;;;14.11;43.76;99501.56;5003154;28;20433;-67
2022/09/13 10:56:03;;;;;;;0.30;0.30;;;;;;;14.07;43.87;99511.53;4953972;28;20524;-68
2022/09/13 10:58:31;;;;;;;;;;;;;;;14.05;43.90;99519.28;5004594;28;20583;-68
2022/09/13 11:01:13;;;;;;;;;;;;;;;14.06;44.03;99501.69;5007291;28;19932;-68
2022/09/13 11:04:11;;;;;;;0.20;0.20;;;;;;;14.09;44.05;99505.75;5006002;28;20493;-68
2022/09/13 11:06:45;;;;;;;0.20;0.20;;;;;;;14.06;44.10;99507.16;4978719;28;20053;-68
2022/09/13 11:09:17;;;;;;;0.20;0.20;;;;;;;14.08;44.06;99509.63;5004764;28;20064;-68
2022/09/13 11:11:56;;;;;;;0.20;0.20;;;;;;;14.07;44.35;99503.31;4989245;28;20176;-68
2022/09/13 11:14:37;;;;;;;0.20;0.20;;;;;;;14.06;44.27;99506.38;4997742;28;20050;-67
2022/09/13 11:17:15;;;;;;;0.38;0.25;;;;;;;14.07;44.06;99505.25;5004144;28;20434;-68
2022/09/13 11:20:16;;;;;;;0.30;0.30;;;;;;;14.07;44.25;99494.25;4986664;28;20089;-68
2022/09/13 11:23:17;;;;;;;0.47;0.32;;;;;;;14.05;43.82;99480.81;4989421;28;20058;-68
2022/09/13 11:25:59;;;;;;;0.20;0.20;;;;;;;14.04;43.81;99501.16;4989582;28;20138;-68
2022/09/13 11:28:39;;;;;;;0.43;0.30;;;;;;;14.08;43.91;99484.88;4997922;28;20069;-68
2022/09/13 11:31:20;;;;;;;0.55;0.30;;;;;;;14.08;44.02;99482.13;4995727;28;20144;-68
2022/09/13 11:34:01;;;;;;;0.20;0.20;;;;;;;14.12;44.29;99485.91;5002018;28;20038;-66
2022/09/13 11:36:57;;;;;;;0.30;0.30;;;;;;;13.96;44.15;99449.66;4984122;28;20169;-67
2022/09/13 11:39:30;;;;;;;0.20;0.20;;;;;;;14.18;44.14;99474.50;4976785;28;20054;-67
2022/09/13 11:42:08;;;;;;;0.20;0.20;;;;;;;14.11;44.05;99473.28;4986022;28;20084;-67
2022/09/13 11:44:58;;;;;;;0.30;0.30;;;;;;;14.06;44.38;99476.13;4984109;28;20049;-69
2022/09/13 11:47:38;;;;;;;0.40;0.30;;;;;;;14.04;44.20;99473.69;5005560;28;20054;-67
2022/09/13 11:50:32;;;;;;;0.68;0.30;;;;;;;13.96;44.36;99472.47;4986392;28;20057;-67
2022/09/13 11:53:18;;;;;;;0.10;0.10;;;;;;;13.94;44.41;99474.72;4985038;28;20089;-65
2022/09/13 11:55:49;;;;;;;0.30;0.30;;;;;;;13.95;44.56;99465.34;5004380;28;20225;-65
2022/09/13 11:58:24;;;;;;;0.20;0.20;;;;;;;13.96;44.99;99464.22;4961006;28;20053;-65
2022/09/13 12:01:00;;;;;;;0.20;0.20;;;;;;;13.98;44.75;99467.47;4963221;28;20085;-67